Time;durP1;ratioP1;P1;durP2;ratioP2;P2;SDS_P1;SDS_P2;PMS_P1;PMS_P2;Temp;Humidity;BMP_temperature;BMP_pressure;BME280_temperature;BME280_humidity;BME280_pressure;Samples;Min_cycle;Max_cycle;Signal;HPM_P1;HPM_P2
2023/10/05 00:04:46;;;;;;;7.63;3.13;;;;;;;;;;4828733;29;20418;-83
2023/10/05 00:07:32;;;;;;;9.63;3.00;;;;;;;;;;4831971;29;20482;-83
2023/10/05 00:10:17;;;;;;;6.05;2.67;;;;;;;;;;4824385;29;20520;-84
2023/10/05 00:13:05;;;;;;;7.57;3.38;;;;;;;;;;4828634;29;20050;-81
2023/10/05 00:15:50;;;;;;;7.65;2.97;;;;;;;;;;4830724;29;20530;-80
2023/10/05 00:18:36;;;;;;;8.75;3.15;;;;;;;;;;4830239;29;20046;-83
2023/10/05 00:21:22;;;;;;;8.60;2.78;;;;;;;;;;4831899;29;20562;-80
2023/10/05 00:24:07;;;;;;;11.98;3.00;;;;;;;;;;4813664;29;20053;-80
2023/10/05 00:26:56;;;;;;;5.63;2.85;;;;;;;;;;4830886;29;20049;-80
2023/10/05 00:29:41;;;;;;;8.52;2.83;;;;;;;;;;4813608;29;20045;-81
2023/10/05 00:32:39;;;;;;;5.60;2.50;;;;;;;;;;4816904;29;20037;-81
2023/10/05 00:35:28;;;;;;;5.20;2.80;;;;;;;;;;4826640;29;20050;-80
2023/10/05 00:38:16;;;;;;;5.68;2.42;;;;;;;;;;4817733;29;20406;-82
2023/10/05 00:41:08;;;;;;;5.18;2.40;;;;;;;;;;4831631;29;20058;-79
2023/10/05 00:43:53;;;;;;;9.50;2.85;;;;;;;;;;4832830;29;20046;-80
2023/10/05 00:46:48;;;;;;;6.82;2.67;;;;;;;;;;4825933;29;20073;-82
2023/10/05 00:49:57;;;;;;;8.27;2.78;;;;;;;;;;4825242;29;20065;-82
2023/10/05 00:52:44;;;;;;;6.50;3.00;;;;;;;;;;4817097;29;20398;-81
2023/10/05 00:55:30;;;;;;;6.60;2.80;;;;;;;;;;4824338;29;20453;-81
2023/10/05 00:58:15;;;;;;;8.30;3.00;;;;;;;;;;4810435;29;20054;-81
2023/10/05 01:01:05;;;;;;;9.48;3.20;;;;;;;;;;4823653;29;20053;-81
2023/10/05 01:06:54;;;;;;;7.13;2.80;;;;;;;;;;4823892;29;20053;-79
2023/10/05 01:09:54;;;;;;;6.70;3.20;;;;;;;;;;4830306;29;20057;-82
2023/10/05 01:12:47;;;;;;;7.18;3.00;;;;;;;;;;4820092;29;20049;-83
2023/10/05 01:15:33;;;;;;;6.72;2.60;;;;;;;;;;4827096;29;20041;-80
2023/10/05 01:18:19;;;;;;;5.63;2.70;;;;;;;;;;4833343;29;20045;-81
2023/10/05 01:21:04;;;;;;;8.50;2.60;;;;;;;;;;4818736;29;20045;-82
2023/10/05 01:23:50;;;;;;;9.52;2.90;;;;;;;;;;4819649;29;20046;-82
2023/10/05 01:26:37;;;;;;;8.18;3.13;;;;;;;;;;4826529;29;20406;-81
2023/10/05 01:29:23;;;;;;;13.00;2.80;;;;;;;;;;4826422;29;20045;-81
2023/10/05 01:32:10;;;;;;;7.20;2.97;;;;;;;;;;4827017;29;20046;-83
2023/10/05 01:34:56;;;;;;;10.05;3.47;;;;;;;;;;4827269;29;20046;-80
2023/10/05 01:37:44;;;;;;;4.90;2.65;;;;;;;;;;4819312;29;20417;-80
2023/10/05 01:40:30;;;;;;;11.90;2.97;;;;;;;;;;4826179;29;20481;-80
2023/10/05 01:43:17;;;;;;;6.05;2.50;;;;;;;;;;4832254;29;20116;-84
2023/10/05 01:46:04;;;;;;;5.18;2.50;;;;;;;;;;4812466;29;20554;-83
2023/10/05 01:48:51;;;;;;;13.43;2.50;;;;;;;;;;4812837;29;20053;-82
2023/10/05 01:51:38;;;;;;;11.02;2.80;;;;;;;;;;4826689;29;20062;-81
2023/10/05 01:54:26;;;;;;;5.22;2.50;;;;;;;;;;4833619;29;20046;-79
2023/10/05 01:57:16;;;;;;;5.45;2.53;;;;;;;;;;4819251;29;20042;-81
2023/10/05 02:00:00;;;;;;;4.10;2.28;;;;;;;;;;4818677;29;20049;-81
2023/10/05 02:02:46;;;;;;;6.78;2.40;;;;;;;;;;4828148;29;21871;-79
2023/10/05 02:05:31;;;;;;;5.53;2.20;;;;;;;;;;4811385;29;20462;-81
2023/10/05 02:08:20;;;;;;;8.15;2.40;;;;;;;;;;4826240;29;20042;-80
2023/10/05 02:11:06;;;;;;;5.93;3.15;;;;;;;;;;4817999;29;20450;-80
2023/10/05 02:13:52;;;;;;;6.07;3.22;;;;;;;;;;4825634;29;20054;-83
2023/10/05 02:16:38;;;;;;;4.60;2.63;;;;;;;;;;4834749;29;20394;-80
2023/10/05 02:19:23;;;;;;;7.03;2.97;;;;;;;;;;4820174;29;20053;-82
2023/10/05 02:22:11;;;;;;;6.70;3.42;;;;;;;;;;4818798;29;20058;-81
2023/10/05 02:24:57;;;;;;;6.50;3.05;;;;;;;;;;4817908;29;20049;-79
2023/10/05 02:27:46;;;;;;;7.30;3.20;;;;;;;;;;4818070;29;20053;-82
2023/10/05 02:30:32;;;;;;;7.18;3.28;;;;;;;;;;4817816;29;20053;-81
2023/10/05 02:33:21;;;;;;;6.28;3.30;;;;;;;;;;4825859;29;20049;-81
2023/10/05 02:36:20;;;;;;;12.82;3.20;;;;;;;;;;4817708;29;20046;-81
2023/10/05 02:39:08;;;;;;;7.82;3.40;;;;;;;;;;4831229;29;20057;-81
2023/10/05 02:41:56;;;;;;;9.45;3.50;;;;;;;;;;4825697;29;20041;-82
2023/10/05 02:44:45;;;;;;;6.60;2.95;;;;;;;;;;4817855;29;20057;-80
2023/10/05 02:47:31;;;;;;;8.98;3.20;;;;;;;;;;4818106;29;20401;-80
2023/10/05 02:50:19;;;;;;;9.65;3.15;;;;;;;;;;4825917;29;20720;-80
2023/10/05 02:53:06;;;;;;;19.38;5.03;;;;;;;;;;4817585;29;20054;-81
2023/10/05 02:55:54;;;;;;;4.28;2.70;;;;;;;;;;4831559;29;20045;-79
2023/10/05 02:58:39;;;;;;;7.60;2.88;;;;;;;;;;4817502;29;20470;-82
2023/10/05 03:01:24;;;;;;;6.30;2.55;;;;;;;;;;4817287;29;20057;-80
2023/10/05 03:07:02;;;;;;;7.97;2.40;;;;;;;;;;4799043;29;20050;-79
2023/10/05 03:09:48;;;;;;;4.72;2.40;;;;;;;;;;4792053;29;20045;-79
2023/10/05 03:12:35;;;;;;;3.78;2.20;;;;;;;;;;4795884;29;20471;-82
2023/10/05 03:15:27;;;;;;;5.03;2.17;;;;;;;;;;4794713;29;20458;-81
2023/10/05 03:18:15;;;;;;;8.02;2.30;;;;;;;;;;4788192;29;20483;-82
2023/10/05 03:21:03;;;;;;;8.05;2.50;;;;;;;;;;4799540;29;20050;-82
2023/10/05 03:23:48;;;;;;;5.38;2.75;;;;;;;;;;4807734;29;20054;-82
2023/10/05 03:26:34;;;;;;;6.13;2.58;;;;;;;;;;4814538;29;20479;-81
2023/10/05 03:29:21;;;;;;;4.88;2.30;;;;;;;;;;4795591;29;20054;-80
2023/10/05 03:34:55;;;;;;;8.18;3.00;;;;;;;;;;4798607;29;20394;-81
2023/10/05 03:37:42;;;;;;;12.07;5.25;;;;;;;;;;4812288;29;20050;-80
2023/10/05 03:40:35;;;;;;;10.98;4.30;;;;;;;;;;4806483;29;20478;-78
2023/10/05 03:43:21;;;;;;;11.85;3.42;;;;;;;;;;4793728;29;20495;-81
2023/10/05 03:46:08;;;;;;;12.82;4.47;;;;;;;;;;4806401;29;20398;-79
2023/10/05 03:49:00;;;;;;;9.77;3.72;;;;;;;;;;4797032;29;20045;-81
2023/10/05 03:51:49;;;;;;;5.88;3.40;;;;;;;;;;4796122;29;20062;-81
2023/10/05 03:54:38;;;;;;;16.08;4.00;;;;;;;;;;4794499;29;20050;-79
2023/10/05 03:57:30;;;;;;;7.75;3.38;;;;;;;;;;4794243;29;20463;-84
2023/10/05 04:00:23;;;;;;;8.65;3.15;;;;;;;;;;4793033;29;20406;-80
2023/10/05 04:03:09;;;;;;;4.72;2.88;;;;;;;;;;4785910;29;20471;-80
2023/10/05 04:05:56;;;;;;;7.88;2.95;;;;;;;;;;4818770;29;20057;-81
2023/10/05 04:08:43;;;;;;;6.97;4.00;;;;;;;;;;4816944;29;20073;-85
2023/10/05 04:11:28;;;;;;;10.27;2.97;;;;;;;;;;4818559;29;20061;-84
2023/10/05 04:14:14;;;;;;;9.27;3.80;;;;;;;;;;4831772;29;20058;-83
2023/10/05 04:17:07;;;;;;;9.07;3.05;;;;;;;;;;4824839;29;20398;-78
2023/10/05 04:19:54;;;;;;;7.80;3.38;;;;;;;;;;4831793;29;20049;-79
2023/10/05 04:22:39;;;;;;;13.43;3.65;;;;;;;;;;4830162;29;20462;-81
2023/10/05 04:25:25;;;;;;;8.18;3.67;;;;;;;;;;4823740;29;20405;-80
2023/10/05 04:28:11;;;;;;;6.78;3.67;;;;;;;;;;4824349;29;20053;-82
2023/10/05 04:30:57;;;;;;;9.15;3.95;;;;;;;;;;4830227;29;20420;-80
2023/10/05 04:33:43;;;;;;;14.02;4.38;;;;;;;;;;4824134;29;20058;-82
2023/10/05 04:36:30;;;;;;;15.15;4.88;;;;;;;;;;4821623;29;20041;-81
2023/10/05 04:39:30;;;;;;;7.57;3.72;;;;;;;;;;4823511;29;20049;-83
2023/10/05 04:42:16;;;;;;;15.35;4.72;;;;;;;;;;4829498;29;20398;-79
2023/10/05 04:45:07;;;;;;;13.10;4.82;;;;;;;;;;4830473;29;20049;-81
2023/10/05 04:47:58;;;;;;;9.23;4.25;;;;;;;;;;4833346;29;20401;-79
2023/10/05 04:50:43;;;;;;;8.88;4.50;;;;;;;;;;4834598;29;20053;-80
2023/10/05 04:53:30;;;;;;;12.88;4.78;;;;;;;;;;4835115;29;20045;-80
2023/10/05 04:56:28;;;;;;;8.38;4.80;;;;;;;;;;4814834;29;20466;-83
2023/10/05 05:02:12;;;;;;;8.95;3.70;;;;;;;;;;4834365;29;20050;-82
2023/10/05 05:08:02;;;;;;;7.82;3.92;;;;;;;;;;4834608;29;20045;-81
2023/10/05 05:10:47;;;;;;;6.50;3.50;;;;;;;;;;4833626;29;20053;-81
2023/10/05 05:13:33;;;;;;;8.70;3.38;;;;;;;;;;4832701;29;20401;-82
2023/10/05 05:16:19;;;;;;;5.65;3.30;;;;;;;;;;4827025;29;20041;-80
2023/10/05 05:19:04;;;;;;;9.27;4.28;;;;;;;;;;4833120;29;21214;-81
2023/10/05 05:21:49;;;;;;;18.92;5.55;;;;;;;;;;4826748;29;20405;-83
2023/10/05 05:24:36;;;;;;;11.95;4.07;;;;;;;;;;4833180;29;20461;-82
2023/10/05 05:27:22;;;;;;;13.50;4.15;;;;;;;;;;4832095;29;20432;-81
2023/10/05 05:30:15;;;;;;;14.88;4.80;;;;;;;;;;4826929;29;20057;-82
2023/10/05 05:32:59;;;;;;;20.33;4.88;;;;;;;;;;4832681;29;20054;-83
2023/10/05 05:35:45;;;;;;;19.70;5.18;;;;;;;;;;4833546;29;20397;-82
2023/10/05 05:38:33;;;;;;;16.15;4.90;;;;;;;;;;4826643;29;20470;-82
2023/10/05 05:41:19;;;;;;;13.13;5.43;;;;;;;;;;4832143;29;20046;-83
2023/10/05 05:44:06;;;;;;;17.13;4.78;;;;;;;;;;4833153;29;20057;-79
2023/10/05 05:46:55;;;;;;;16.27;4.35;;;;;;;;;;4826257;29;20486;-81
2023/10/05 05:49:41;;;;;;;15.93;5.47;;;;;;;;;;4831745;29;20046;-85
2023/10/05 05:52:26;;;;;;;11.77;4.47;;;;;;;;;;4833216;29;20475;-80
2023/10/05 05:55:13;;;;;;;14.10;4.07;;;;;;;;;;4832385;29;20076;-81
2023/10/05 05:57:59;;;;;;;18.75;4.85;;;;;;;;;;4832596;29;20054;-80
2023/10/05 06:00:48;;;;;;;23.42;4.20;;;;;;;;;;4832997;29;20049;-80
2023/10/05 06:03:33;;;;;;;17.00;4.68;;;;;;;;;;4832240;29;20420;-82
2023/10/05 06:06:19;;;;;;;8.60;4.05;;;;;;;;;;4826527;29;20053;-78
2023/10/05 06:09:07;;;;;;;16.35;4.28;;;;;;;;;;4831427;29;20049;-79
2023/10/05 06:11:53;;;;;;;14.27;4.40;;;;;;;;;;4832216;29;20390;-82
2023/10/05 06:14:40;;;;;;;7.95;3.60;;;;;;;;;;4826609;29;20470;-81
2023/10/05 06:17:25;;;;;;;14.30;4.28;;;;;;;;;;4817735;29;20693;-80
2023/10/05 06:20:14;;;;;;;8.88;3.78;;;;;;;;;;4830913;29;20084;-82
2023/10/05 06:23:00;;;;;;;18.02;3.95;;;;;;;;;;4824679;29;20420;-80
2023/10/05 06:25:48;;;;;;;9.90;4.00;;;;;;;;;;4830636;29;20046;-81
2023/10/05 06:28:34;;;;;;;10.50;3.90;;;;;;;;;;4834906;29;20072;-82
2023/10/05 06:31:19;;;;;;;13.60;4.43;;;;;;;;;;4836389;29;20054;-82
2023/10/05 06:34:09;;;;;;;15.63;4.82;;;;;;;;;;4835963;29;20053;-83
2023/10/05 06:36:54;;;;;;;8.80;3.72;;;;;;;;;;4821835;29;20418;-81
2023/10/05 06:39:40;;;;;;;9.18;4.30;;;;;;;;;;4836523;29;20046;-83
2023/10/05 06:42:25;;;;;;;10.60;4.70;;;;;;;;;;4834482;29;20046;-80
2023/10/05 06:45:15;;;;;;;11.40;5.30;;;;;;;;;;4835703;29;20402;-79
2023/10/05 06:48:02;;;;;;;11.13;4.90;;;;;;;;;;4836451;29;20485;-81
2023/10/05 06:50:47;;;;;;;13.93;5.10;;;;;;;;;;4836349;29;20061;-82
2023/10/05 06:53:33;;;;;;;11.98;4.90;;;;;;;;;;4836172;29;21256;-80
2023/10/05 06:56:22;;;;;;;14.25;4.82;;;;;;;;;;4834774;29;20053;-85
2023/10/05 06:59:07;;;;;;;11.75;4.45;;;;;;;;;;4830343;29;20053;-83
2023/10/05 07:01:52;;;;;;;9.30;4.93;;;;;;;;;;4815913;29;20390;-83
2023/10/05 07:04:38;;;;;;;9.88;4.85;;;;;;;;;;4828830;29;20391;-82
2023/10/05 07:07:24;;;;;;;10.20;4.32;;;;;;;;;;4828564;29;20046;-82
2023/10/05 07:10:14;;;;;;;12.98;4.63;;;;;;;;;;4816634;29;20046;-82
2023/10/05 07:13:00;;;;;;;12.10;4.88;;;;;;;;;;4831101;29;20053;-82
2023/10/05 07:15:45;;;;;;;16.27;4.82;;;;;;;;;;4830640;29;20049;-81
2023/10/05 07:18:31;;;;;;;10.18;4.25;;;;;;;;;;4816490;29;20049;-83
2023/10/05 07:21:16;;;;;;;11.45;4.93;;;;;;;;;;4830271;29;20053;-82
2023/10/05 07:24:04;;;;;;;9.45;5.00;;;;;;;;;;4809998;29;20470;-81
2023/10/05 07:26:49;;;;;;;13.02;4.75;;;;;;;;;;4830229;29;20776;-84
2023/10/05 07:29:36;;;;;;;16.85;4.05;;;;;;;;;;4824587;29;20386;-83
2023/10/05 07:32:21;;;;;;;9.45;4.35;;;;;;;;;;4816052;29;20057;-83
2023/10/05 07:35:07;;;;;;;12.70;4.70;;;;;;;;;;4829897;29;20405;-83
2023/10/05 07:37:52;;;;;;;11.07;4.05;;;;;;;;;;4829083;29;20045;-83
2023/10/05 07:40:39;;;;;;;9.73;4.60;;;;;;;;;;4829435;29;20053;-83
2023/10/05 07:43:27;;;;;;;14.15;5.10;;;;;;;;;;4829666;29;20050;-83
2023/10/05 07:46:13;;;;;;;14.80;5.28;;;;;;;;;;4829682;29;20458;-83
2023/10/05 07:48:58;;;;;;;13.77;4.43;;;;;;;;;;4815577;29;20401;-83
2023/10/05 07:51:44;;;;;;;32.08;22.67;;;;;;;;;;4829922;29;20053;-83
2023/10/05 07:54:34;;;;;;;13.18;5.35;;;;;;;;;;4815328;29;20482;-84
2023/10/05 07:57:19;;;;;;;10.07;4.30;;;;;;;;;;4823545;29;20482;-85
2023/10/05 08:00:06;;;;;;;8.95;3.50;;;;;;;;;;4811441;29;20049;-82
2023/10/05 08:02:57;;;;;;;10.95;3.85;;;;;;;;;;4828435;29;20457;-83
2023/10/05 08:05:42;;;;;;;10.23;3.80;;;;;;;;;;4825943;29;20054;-83
2023/10/05 08:08:27;;;;;;;7.70;3.50;;;;;;;;;;4835583;29;20038;-81
2023/10/05 08:11:18;;;;;;;8.07;3.25;;;;;;;;;;4837154;29;20049;-84
2023/10/05 08:14:04;;;;;;;8.73;4.55;;;;;;;;;;4835193;29;20458;-81
2023/10/05 08:16:49;;;;;;;10.20;3.17;;;;;;;;;;4835385;29;20408;-81
2023/10/05 08:19:35;;;;;;;13.60;4.10;;;;;;;;;;4828611;29;20478;-80
2023/10/05 08:22:20;;;;;;;9.77;3.13;;;;;;;;;;4834078;29;20397;-80
2023/10/05 08:25:12;;;;;;;11.05;3.95;;;;;;;;;;4828187;29;20409;-81
2023/10/05 08:27:57;;;;;;;10.20;3.13;;;;;;;;;;4819809;29;20072;-80
2023/10/05 08:31:04;;;;;;;11.45;3.03;;;;;;;;;;4820544;29;20402;-83
2023/10/05 08:33:54;;;;;;;4.35;2.30;;;;;;;;;;4820548;29;20474;-81
2023/10/05 08:36:39;;;;;;;7.03;2.60;;;;;;;;;;4828166;29;20079;-84
2023/10/05 08:39:30;;;;;;;4.70;2.45;;;;;;;;;;4825619;29;20050;-82
2023/10/05 08:42:16;;;;;;;4.70;2.00;;;;;;;;;;4829355;29;20046;-83
2023/10/05 08:45:04;;;;;;;4.80;2.30;;;;;;;;;;4815768;29;20493;-81
2023/10/05 08:47:55;;;;;;;4.85;2.03;;;;;;;;;;4829301;29;20053;-80
2023/10/05 08:50:42;;;;;;;5.93;2.75;;;;;;;;;;4823623;29;20045;-80
2023/10/05 08:53:29;;;;;;;5.05;2.25;;;;;;;;;;4829266;29;20069;-81
2023/10/05 08:56:16;;;;;;;4.85;2.22;;;;;;;;;;4829342;29;20050;-81
2023/10/05 08:59:07;;;;;;;6.47;2.88;;;;;;;;;;4815182;29;20053;-81
2023/10/05 09:01:59;;;;;;;9.18;2.85;;;;;;;;;;4829815;29;20053;-82
2023/10/05 09:05:07;;;;;;;9.27;2.90;;;;;;;;;;4829430;29;20053;-82
2023/10/05 09:07:56;;;;;;;6.10;2.90;;;;;;;;;;4824185;29;20398;-82
2023/10/05 09:10:41;;;;;;;12.07;3.03;;;;;;;;;;4828605;29;20049;-83
2023/10/05 09:13:44;;;;;;;7.78;2.72;;;;;;;;;;4829605;29;20484;-82
2023/10/05 09:16:41;;;;;;;12.23;3.20;;;;;;;;;;4829505;29;20065;-81
2023/10/05 09:19:29;;;;;;;6.10;2.72;;;;;;;;;;4829379;29;20057;-87
2023/10/05 09:22:17;;;;;;;7.18;2.65;;;;;;;;;;4814686;29;20058;-81
2023/10/05 09:25:09;;;;;;;11.68;2.58;;;;;;;;;;4814821;29;20049;-82
2023/10/05 09:27:58;;;;;;;10.38;2.90;;;;;;;;;;4823570;29;20046;-81
2023/10/05 09:30:56;;;;;;;7.05;2.60;;;;;;;;;;4816008;29;20406;-83
2023/10/05 09:33:54;;;;;;;8.13;3.33;;;;;;;;;;4818102;29;20058;-82
2023/10/05 09:36:39;;;;;;;7.88;2.60;;;;;;;;;;4832669;29;20057;-83
2023/10/05 09:39:26;;;;;;;9.75;2.60;;;;;;;;;;4826412;29;20053;-83
2023/10/05 09:42:25;;;;;;;8.25;2.80;;;;;;;;;;4831898;29;20494;-85
2023/10/05 09:45:12;;;;;;;11.82;2.80;;;;;;;;;;4830834;29;20049;-82
2023/10/05 09:48:00;;;;;;;7.07;2.42;;;;;;;;;;4827357;29;20356;-83
2023/10/05 09:50:48;;;;;;;8.50;3.00;;;;;;;;;;4826529;29;20231;-83
2023/10/05 09:53:35;;;;;;;8.27;2.97;;;;;;;;;;4831954;29;20061;-81
2023/10/05 09:56:21;;;;;;;6.68;2.67;;;;;;;;;;4832629;29;20054;-84
2023/10/05 09:59:06;;;;;;;7.95;2.65;;;;;;;;;;4832187;29;20049;-81
2023/10/05 10:01:52;;;;;;;7.63;2.40;;;;;;;;;;4832040;29;20045;-82
2023/10/05 10:04:39;;;;;;;5.43;2.80;;;;;;;;;;4834428;29;20042;-83
2023/10/05 10:07:26;;;;;;;8.57;2.65;;;;;;;;;;4829143;29;20050;-82
2023/10/05 10:10:12;;;;;;;8.52;3.08;;;;;;;;;;4812094;29;20045;-82
2023/10/05 10:12:59;;;;;;;11.90;3.83;;;;;;;;;;4832183;29;20049;-82
2023/10/05 10:15:47;;;;;;;13.52;3.15;;;;;;;;;;4832423;29;20615;-83
2023/10/05 10:18:37;;;;;;;12.43;3.22;;;;;;;;;;4825655;29;20054;-82
2023/10/05 10:21:32;;;;;;;8.05;3.15;;;;;;;;;;4831437;29;20045;-81
2023/10/05 10:24:18;;;;;;;13.00;3.15;;;;;;;;;;4831433;29;20053;-81
2023/10/05 10:27:11;;;;;;;9.73;3.15;;;;;;;;;;4831861;29;20045;-85
2023/10/05 10:29:56;;;;;;;13.48;3.50;;;;;;;;;;4831287;29;20038;-81
2023/10/05 10:32:43;;;;;;;10.25;3.40;;;;;;;;;;4831270;29;20485;-80
2023/10/05 10:35:32;;;;;;;7.05;2.95;;;;;;;;;;4825447;29;20057;-85
2023/10/05 10:38:18;;;;;;;7.13;3.22;;;;;;;;;;4825695;29;20062;-84
2023/10/05 10:41:15;;;;;;;12.48;2.83;;;;;;;;;;4830568;29;20046;-84
2023/10/05 10:44:02;;;;;;;6.68;3.20;;;;;;;;;;4830436;29;20363;-81
2023/10/05 10:46:54;;;;;;;10.38;3.40;;;;;;;;;;4817078;29;20454;-82
2023/10/05 10:49:40;;;;;;;8.93;3.35;;;;;;;;;;4830817;29;20053;-82
2023/10/05 10:52:25;;;;;;;14.10;3.50;;;;;;;;;;4825181;29;20045;-83
2023/10/05 10:55:17;;;;;;;9.80;3.13;;;;;;;;;;4830965;29;20405;-81
2023/10/05 10:58:04;;;;;;;9.63;3.95;;;;;;;;;;4816519;29;20046;-82
2023/10/05 11:01:13;;;;;;;8.23;3.00;;;;;;;;;;4824903;29;20057;-83
2023/10/05 11:04:04;;;;;;;8.45;3.22;;;;;;;;;;4824997;29;20041;-81
2023/10/05 11:06:56;;;;;;;8.50;2.95;;;;;;;;;;4812219;29;20462;-81
2023/10/05 11:09:52;;;;;;;7.28;2.40;;;;;;;;;;4831751;29;20058;-81
2023/10/05 11:12:42;;;;;;;18.13;5.88;;;;;;;;;;4819786;29;20567;-81
2023/10/05 11:15:30;;;;;;;6.63;3.00;;;;;;;;;;4827417;29;20517;-81
2023/10/05 11:18:19;;;;;;;11.15;3.10;;;;;;;;;;4826613;29;20054;-82
2023/10/05 11:21:23;;;;;;;8.52;3.22;;;;;;;;;;4813414;29;20053;-83
2023/10/05 11:24:10;;;;;;;7.35;2.97;;;;;;;;;;4819378;29;20058;-83
2023/10/05 11:27:05;;;;;;;8.85;3.00;;;;;;;;;;4826985;29;20478;-83
2023/10/05 11:29:55;;;;;;;6.63;2.97;;;;;;;;;;4826438;29;20045;-83
2023/10/05 11:32:43;;;;;;;7.57;2.65;;;;;;;;;;4824277;29;20413;-84
2023/10/05 11:35:28;;;;;;;8.50;2.92;;;;;;;;;;4829841;29;20863;-82
2023/10/05 11:38:16;;;;;;;11.63;3.50;;;;;;;;;;4829862;29;20049;-83
2023/10/05 11:41:09;;;;;;;19.73;9.93;;;;;;;;;;4824399;29;20497;-80
2023/10/05 11:43:58;;;;;;;7.65;3.22;;;;;;;;;;4809271;29;20320;-80
2023/10/05 11:46:46;;;;;;;12.90;3.28;;;;;;;;;;4824181;29;20462;-82
2023/10/05 11:49:31;;;;;;;11.68;3.30;;;;;;;;;;4809893;29;20050;-85
2023/10/05 11:52:17;;;;;;;6.90;3.28;;;;;;;;;;4823980;29;20057;-83
2023/10/05 11:55:05;;;;;;;7.82;3.47;;;;;;;;;;4824185;29;20056;-81
2023/10/05 11:57:52;;;;;;;7.85;3.20;;;;;;;;;;4830075;29;20065;-86
2023/10/05 12:00:37;;;;;;;7.00;3.50;;;;;;;;;;4831905;29;20409;-83
2023/10/05 12:03:26;;;;;;;5.57;3.30;;;;;;;;;;4830583;29;20049;-82
2023/10/05 12:06:12;;;;;;;7.22;2.65;;;;;;;;;;4815269;29;20421;-81
2023/10/05 12:09:07;;;;;;;12.20;3.45;;;;;;;;;;4824788;29;20049;-83
2023/10/05 12:11:57;;;;;;;5.45;2.80;;;;;;;;;;4829750;29;20045;-81
2023/10/05 12:14:42;;;;;;;7.13;3.17;;;;;;;;;;4830092;29;20057;-83
2023/10/05 12:17:29;;;;;;;10.20;3.22;;;;;;;;;;4823811;29;20474;-84
2023/10/05 12:20:14;;;;;;;6.38;3.03;;;;;;;;;;4822781;29;20049;-81
2023/10/05 12:23:00;;;;;;;8.63;3.08;;;;;;;;;;4820994;29;20494;-83
2023/10/05 12:25:46;;;;;;;7.20;3.35;;;;;;;;;;4824286;29;20054;-82
2023/10/05 12:28:31;;;;;;;8.52;6.50;;;;;;;;;;4824010;29;20041;-82
2023/10/05 12:31:17;;;;;;;8.13;3.63;;;;;;;;;;4802894;29;20858;-82
2023/10/05 12:34:05;;;;;;;7.88;3.10;;;;;;;;;;4829763;29;20050;-85
2023/10/05 12:36:51;;;;;;;7.07;3.10;;;;;;;;;;4829539;29;20553;-82
2023/10/05 12:39:37;;;;;;;10.55;3.17;;;;;;;;;;4829585;29;20417;-84
2023/10/05 12:42:23;;;;;;;9.25;3.13;;;;;;;;;;4809369;29;20053;-84
2023/10/05 12:45:11;;;;;;;12.68;2.97;;;;;;;;;;4829324;29;20061;-84
2023/10/05 12:47:56;;;;;;;13.63;4.05;;;;;;;;;;4809303;29;20042;-83
2023/10/05 12:50:42;;;;;;;9.90;3.70;;;;;;;;;;4821557;29;20410;-82
2023/10/05 12:53:28;;;;;;;15.18;9.48;;;;;;;;;;4823604;29;20756;-84
2023/10/05 12:56:15;;;;;;;11.48;6.63;;;;;;;;;;4830460;29;20049;-83
2023/10/05 12:59:03;;;;;;;6.53;3.60;;;;;;;;;;4821615;29;20409;-83
2023/10/05 13:01:48;;;;;;;8.43;3.30;;;;;;;;;;4824752;29;20054;-83
2023/10/05 13:04:34;;;;;;;10.32;3.33;;;;;;;;;;4832577;29;20053;-84
2023/10/05 13:07:25;;;;;;;9.43;2.83;;;;;;;;;;4828027;29;20435;-84
2023/10/05 13:10:21;;;;;;;5.07;2.90;;;;;;;;;;4833228;29;20061;-83
2023/10/05 13:13:21;;;;;;;9.05;3.13;;;;;;;;;;4826931;29;20402;-83
2023/10/05 13:16:13;;;;;;;7.72;3.08;;;;;;;;;;4819199;29;20053;-84
2023/10/05 13:19:00;;;;;;;7.63;3.38;;;;;;;;;;4820574;29;20057;-83
2023/10/05 13:21:46;;;;;;;15.20;3.47;;;;;;;;;;4827360;29;20401;-83
2023/10/05 13:24:32;;;;;;;7.82;3.10;;;;;;;;;;4827373;29;20049;-83
2023/10/05 13:27:18;;;;;;;10.32;3.40;;;;;;;;;;4811062;29;20470;-84
2023/10/05 13:30:03;;;;;;;12.55;3.25;;;;;;;;;;4818764;29;20422;-85
2023/10/05 13:32:57;;;;;;;6.57;3.30;;;;;;;;;;4831303;29;20050;-82
2023/10/05 13:35:44;;;;;;;9.98;3.83;;;;;;;;;;4832874;29;20410;-84
2023/10/05 13:38:33;;;;;;;8.88;3.35;;;;;;;;;;4833594;29;20463;-84
2023/10/05 13:41:19;;;;;;;10.52;3.13;;;;;;;;;;4830235;29;20049;-83
2023/10/05 13:44:05;;;;;;;8.75;3.47;;;;;;;;;;4832360;29;20045;-84
2023/10/05 13:46:53;;;;;;;11.63;3.28;;;;;;;;;;4832031;29;20054;-83
2023/10/05 13:49:41;;;;;;;11.52;3.60;;;;;;;;;;4817701;29;20042;-85
2023/10/05 13:52:27;;;;;;;12.38;3.38;;;;;;;;;;4830790;29;20046;-86
2023/10/05 13:55:14;;;;;;;7.82;2.90;;;;;;;;;;4839860;29;20474;-85
2023/10/05 13:57:59;;;;;;;10.70;3.13;;;;;;;;;;4826467;29;20066;-84
2023/10/05 14:00:44;;;;;;;8.75;3.13;;;;;;;;;;4832150;29;20465;-85
2023/10/05 14:03:30;;;;;;;7.45;3.05;;;;;;;;;;4817737;29;20454;-83
2023/10/05 14:06:16;;;;;;;6.60;2.97;;;;;;;;;;4830554;29;20477;-83
2023/10/05 14:09:05;;;;;;;7.63;2.92;;;;;;;;;;4814602;29;20046;-82
2023/10/05 14:11:50;;;;;;;11.50;2.70;;;;;;;;;;4811536;29;20049;-83
2023/10/05 14:14:35;;;;;;;8.80;3.15;;;;;;;;;;4831379;29;21745;-83
2023/10/05 14:17:21;;;;;;;5.43;3.22;;;;;;;;;;4829869;29;20996;-81
2023/10/05 14:20:11;;;;;;;9.70;2.95;;;;;;;;;;4817940;29;20049;-83
2023/10/05 14:22:56;;;;;;;8.20;3.17;;;;;;;;;;4809940;29;20054;-83
2023/10/05 14:25:43;;;;;;;8.85;3.22;;;;;;;;;;4822832;29;20049;-84
2023/10/05 14:28:29;;;;;;;12.00;3.35;;;;;;;;;;4827481;29;20061;-81
2023/10/05 14:31:15;;;;;;;7.53;3.28;;;;;;;;;;4824471;29;20466;-83
2023/10/05 14:34:05;;;;;;;12.23;3.15;;;;;;;;;;4809580;29;20489;-86
2023/10/05 14:36:54;;;;;;;6.35;3.05;;;;;;;;;;4828154;29;20374;-83
2023/10/05 14:39:40;;;;;;;13.65;3.72;;;;;;;;;;4815899;29;20406;-84
2023/10/05 14:42:25;;;;;;;9.40;3.10;;;;;;;;;;4824115;29;20053;-83
2023/10/05 14:45:12;;;;;;;11.45;2.88;;;;;;;;;;4816846;29;20407;-82
2023/10/05 14:48:02;;;;;;;11.07;3.63;;;;;;;;;;4827626;29;20505;-82
2023/10/05 14:50:51;;;;;;;7.85;3.30;;;;;;;;;;4827806;29;20360;-84
2023/10/05 14:53:38;;;;;;;15.10;4.07;;;;;;;;;;4824365;29;20410;-83
2023/10/05 14:56:24;;;;;;;7.72;3.47;;;;;;;;;;4824267;29;20537;-85
2023/10/05 14:59:10;;;;;;;9.13;3.58;;;;;;;;;;4829932;29;20041;-84
2023/10/05 15:01:58;;;;;;;8.13;3.38;;;;;;;;;;4824265;29;20045;-79
2023/10/05 15:04:43;;;;;;;10.68;3.20;;;;;;;;;;4829945;29;20049;-82
2023/10/05 15:07:30;;;;;;;7.85;3.53;;;;;;;;;;4821971;29;20422;-82
2023/10/05 15:10:19;;;;;;;10.52;3.88;;;;;;;;;;4830597;29;20477;-81
2023/10/05 15:13:06;;;;;;;7.15;3.58;;;;;;;;;;4829530;29;20398;-82
2023/10/05 15:15:52;;;;;;;11.45;3.13;;;;;;;;;;4823196;29;20041;-81
2023/10/05 15:18:41;;;;;;;10.68;3.50;;;;;;;;;;4815833;29;20474;-81
2023/10/05 15:21:27;;;;;;;11.25;4.90;;;;;;;;;;4829158;29;20487;-82
2023/10/05 15:24:13;;;;;;;11.85;4.03;;;;;;;;;;4811105;29;20410;-84
2023/10/05 15:26:59;;;;;;;16.42;4.22;;;;;;;;;;4830307;29;20484;-81
2023/10/05 15:29:44;;;;;;;18.08;5.05;;;;;;;;;;4830623;29;20474;-81
2023/10/05 15:32:30;;;;;;;16.90;6.85;;;;;;;;;;4823630;29;20050;-84
2023/10/05 15:35:17;;;;;;;13.73;5.50;;;;;;;;;;4817444;29;20045;-82
2023/10/05 15:38:06;;;;;;;14.27;4.50;;;;;;;;;;4823624;29;20057;-82
2023/10/05 15:40:51;;;;;;;17.23;6.18;;;;;;;;;;4831538;29;20058;-82
2023/10/05 15:43:37;;;;;;;19.02;6.88;;;;;;;;;;4830402;29;20462;-82
2023/10/05 15:46:23;;;;;;;17.83;6.18;;;;;;;;;;4825621;29;20050;-85
2023/10/05 15:49:08;;;;;;;38.22;17.63;;;;;;;;;;4828928;29;20045;-83
2023/10/05 15:51:54;;;;;;;31.20;12.52;;;;;;;;;;4829638;29;20462;-82
2023/10/05 15:54:41;;;;;;;22.40;9.75;;;;;;;;;;4834981;29;20470;-81
2023/10/05 15:57:26;;;;;;;20.13;8.85;;;;;;;;;;4834858;29;20046;-81
2023/10/05 16:00:25;;;;;;;17.23;7.63;;;;;;;;;;4833730;29;20050;-82
2023/10/05 16:03:11;;;;;;;21.63;8.15;;;;;;;;;;4835221;29;20061;-82
2023/10/05 16:05:59;;;;;;;25.58;12.63;;;;;;;;;;4833902;29;20042;-83
2023/10/05 16:08:44;;;;;;;38.70;14.48;;;;;;;;;;4821190;29;20462;-84
2023/10/05 16:11:30;;;;;;;30.77;12.23;;;;;;;;;;4821295;29;20405;-85
2023/10/05 16:14:15;;;;;;;21.00;8.82;;;;;;;;;;4825040;29;20049;-84
2023/10/05 16:17:01;;;;;;;16.33;6.93;;;;;;;;;;4833022;29;20046;-83
2023/10/05 16:19:47;;;;;;;7.50;4.43;;;;;;;;;;4818509;29;20402;-83
2023/10/05 16:22:33;;;;;;;11.48;4.53;;;;;;;;;;4835598;29;20405;-83
2023/10/05 16:25:19;;;;;;;7.45;3.85;;;;;;;;;;4827008;29;20467;-84
2023/10/05 16:28:07;;;;;;;11.20;4.10;;;;;;;;;;4826888;29;20050;-81
2023/10/05 16:30:58;;;;;;;12.60;4.40;;;;;;;;;;4812722;29;20041;-82
2023/10/05 16:33:44;;;;;;;10.13;4.05;;;;;;;;;;4823463;29;20049;-84
2023/10/05 16:36:29;;;;;;;19.08;4.43;;;;;;;;;;4810490;29;20053;-82
2023/10/05 16:39:21;;;;;;;13.02;4.90;;;;;;;;;;4819209;29;20046;-82
2023/10/05 16:42:07;;;;;;;27.38;8.13;;;;;;;;;;4829824;29;20477;-81
2023/10/05 16:44:52;;;;;;;15.32;7.30;;;;;;;;;;4837015;29;20478;-84
2023/10/05 16:47:41;;;;;;;19.98;8.15;;;;;;;;;;4831646;29;20627;-83
2023/10/05 16:50:27;;;;;;;21.45;9.80;;;;;;;;;;4824138;29;20479;-82
2023/10/05 16:53:14;;;;;;;16.40;8.75;;;;;;;;;;4830476;29;20398;-84
2023/10/05 16:56:03;;;;;;;10.95;6.35;;;;;;;;;;4832274;29;20049;-85
2023/10/05 16:58:49;;;;;;;14.80;6.55;;;;;;;;;;4822323;29;20394;-86